Time;durP1;ratioP1;P1;durP2;ratioP2;P2;SDS_P1;SDS_P2;PMS_P1;PMS_P2;Temp;Humidity;BMP_temperature;BMP_pressure;BME280_temperature;BME280_humidity;BME280_pressure;Samples;Min_cycle;Max_cycle;Signal;HPM_P1;HPM_P2
2024/02/25 00:03:27;;;;;;;;;;;1.40;8.10;;;;;;5094332;28;19918;-76
2024/02/25 00:08:55;;;;;;;;;;;1.50;6.10;;;;;;5095113;28;19953;-78
2024/02/25 00:14:28;;;;;;;;;;;1.50;7.80;;;;;;5076545;28;19915;-78
2024/02/25 00:19:56;;;;;;;;;;;1.50;1.90;;;;;;5094061;28;19953;-78
2024/02/25 00:22:29;;;;;;;;;;;1.50;2.80;;;;;;5093899;28;19908;-77
2024/02/25 00:27:57;;;;;;;;;;;1.50;2.00;;;;;;5080069;28;19927;-78
2024/02/25 00:30:23;;;;;;;;;;;1.40;1.00;;;;;;5096010;28;19908;-78
2024/02/25 00:38:54;;;;;;;;;;;1.40;2.90;;;;;;5093416;28;19969;-77
2024/02/25 00:44:53;;;;;;;;;;;1.40;4.80;;;;;;5091407;28;19981;-78
2024/02/25 01:02:33;;;;;;;;;;;1.50;3.70;;;;;;5096944;28;20278;-77
2024/02/25 01:05:05;;;;;;;;;;;1.40;6.10;;;;;;5100485;28;19939;-77
2024/02/25 01:07:53;;;;;;;;;;;1.50;6.80;;;;;;5094007;28;20432;-78
2024/02/25 01:10:35;;;;;;;;;;;1.50;7.60;;;;;;5081448;28;19969;-77
2024/02/25 01:13:00;;;;;;;;;;;1.50;7.90;;;;;;5093861;28;20363;-77
2024/02/25 01:15:41;;;;;;;;;;;1.50;7.70;;;;;;5093917;28;19908;-77
2024/02/25 01:24:31;;;;;;;;;;;1.70;6.50;;;;;;5089976;28;19919;-78
2024/02/25 01:27:05;;;;;;;;;;;1.70;7.80;;;;;;5081604;28;19916;-78
2024/02/25 01:41:42;;;;;;;;;;;1.70;1.00;;;;;;5093426;28;19999;-79
2024/02/25 01:47:35;;;;;;;;;;;1.70;5.90;;;;;;5114023;28;19923;-78
2024/02/25 01:53:23;;;;;;;;;;;1.90;11.50;;;;;;5104479;28;19985;-78
2024/02/25 02:04:59;;;;;;;;;;;2.30;16.20;;;;;;5089478;28;20386;-77
2024/02/25 02:07:59;;;;;;;;;;;2.30;14.60;;;;;;5099499;28;19953;-78
2024/02/25 02:14:05;;;;;;;;;;;2.50;9.00;;;;;;5101254;28;20389;-78
2024/02/25 02:17:05;;;;;;;;;;;2.50;8.50;;;;;;5090406;28;20375;-78
2024/02/25 02:22:47;;;;;;;;;;;2.60;3.60;;;;;;5076226;28;19919;-77
2024/02/25 02:25:17;;;;;;;;;;;2.60;5.90;;;;;;5100084;28;19912;-77
2024/02/25 02:27:44;;;;;;;;;;;2.60;4.80;;;;;;5101665;28;19908;-77
2024/02/25 02:36:23;;;;;;;;;;;2.80;6.50;;;;;;5096032;28;19919;-77
2024/02/25 02:38:59;;;;;;;;;;;2.80;4.50;;;;;;5106582;28;19908;-78
2024/02/25 02:41:42;;;;;;;;;;;2.90;3.50;;;;;;5075958;28;19917;-78
2024/02/25 02:50:17;;;;;;;;;;;2.90;1.00;;;;;;5095585;28;19953;-78
2024/02/25 02:52:47;;;;;;;;;;;2.70;1.00;;;;;;5096211;28;19961;-78
2024/02/25 02:55:17;;;;;;;;;;;2.70;1.00;;;;;;5095668;28;19908;-78
2024/02/25 03:06:59;;;;;;;;;;;2.70;1.00;;;;;;5110664;28;20305;-79
2024/02/25 03:12:29;;;;;;;;;;;2.70;1.00;;;;;;5075321;28;19923;-78
2024/02/25 03:17:57;;;;;;;;;;;2.70;1.00;;;;;;5095238;28;19965;-79
2024/02/25 03:20:23;;;;;;;;;;;2.80;1.70;;;;;;5095314;28;19912;-79
2024/02/25 03:22:53;;;;;;;;;;;2.80;2.60;;;;;;5095307;28;20003;-79
2024/02/25 03:25:18;;;;;;;;;;;2.80;1.90;;;;;;5089123;28;19908;-78
2024/02/25 03:27:44;;;;;;;;;;;2.90;4.70;;;;;;5087598;28;19919;-78
2024/02/25 03:36:23;;;;;;;;;;;3.10;1.00;;;;;;5093465;28;19919;-78
2024/02/25 03:38:59;;;;;;;;;;;3.20;1.00;;;;;;5093512;28;19948;-78
2024/02/25 03:41:35;;;;;;;;;;;3.20;1.00;;;;;;5081722;28;19908;-78
2024/02/25 03:44:02;;;;;;;;;;;3.30;1.00;;;;;;5094716;28;19916;-78
2024/02/25 03:47:05;;;;;;;;;;;3.30;1.00;;;;;;5095015;28;20322;-78
2024/02/25 03:50:05;;;;;;;;;;;3.30;1.00;;;;;;5079540;28;19915;-79
2024/02/25 03:52:37;;;;;;;;;;;3.30;1.00;;;;;;5094769;28;19958;-79
2024/02/25 03:55:35;;;;;;;;;;;3.30;1.00;;;;;;5102537;28;19912;-78
2024/02/25 03:58:35;;;;;;;;;;;3.30;1.00;;;;;;5074929;28;19970;-77
2024/02/25 04:01:05;;;;;;;;;;;3.30;1.00;;;;;;5091345;28;19973;-77
2024/02/25 04:04:05;;;;;;;;;;;3.30;1.00;;;;;;5093897;28;20006;-79
2024/02/25 04:09:33;;;;;;;;;;;3.40;1.00;;;;;;5094895;28;19966;-78
2024/02/25 04:12:00;;;;;;;;;;;3.40;1.00;;;;;;5094271;28;20279;-78
2024/02/25 04:20:47;;;;;;;;;;;3.50;1.00;;;;;;5094426;28;19915;-77
2024/02/25 04:26:15;;;;;;;;;;;3.60;1.00;;;;;;5094213;28;19923;-77
2024/02/25 04:28:41;;;;;;;;;;;3.70;1.00;;;;;;5091314;28;19916;-77
2024/02/25 04:34:17;;;;;;;;;;;3.70;1.00;;;;;;5094276;28;19965;-77
2024/02/25 04:40:05;;;;;;;;;;;3.80;1.00;;;;;;5087146;28;19919;-78
2024/02/25 04:42:54;;;;;;;;;;;3.80;1.00;;;;;;5092937;28;19919;-78
2024/02/25 04:45:35;;;;;;;;;;;3.70;1.00;;;;;;5094094;28;19920;-78
2024/02/25 04:54:08;;;;;;;;;;;3.90;1.00;;;;;;5094119;28;20374;-78
2024/02/25 04:56:54;;;;;;;;;;;4.10;1.00;;;;;;5093273;28;20367;-78
2024/02/25 05:02:24;;;;;;;;;;;4.30;1.00;;;;;;5113207;28;19915;-78
2024/02/25 05:08:23;;;;;;;;;;;4.40;1.00;;;;;;5086507;28;20390;-78
2024/02/25 05:10:53;;;;;;;;;;;4.50;1.00;;;;;;5086566;28;19912;-77
2024/02/25 05:13:19;;;;;;;;;;;4.50;1.00;;;;;;5090719;28;19912;-77
2024/02/25 05:19:17;;;;;;;;;;;4.70;1.00;;;;;;5083966;28;19958;-77
2024/02/25 05:24:46;;;;;;;;;;;4.80;1.00;;;;;;5097647;28;20019;-77
2024/02/25 05:33:30;;;;;;;;;;;4.70;1.00;;;;;;5097189;28;20324;-77
2024/02/25 05:36:11;;;;;;;;;;;4.90;1.00;;;;;;5097508;28;19923;-77
2024/02/25 05:38:47;;;;;;;;;;;4.90;1.00;;;;;;5099677;28;19908;-77
2024/02/25 05:41:41;;;;;;;;;;;5.00;1.00;;;;;;5098478;28;19918;-78
2024/02/25 05:44:17;;;;;;;;;;;5.00;1.00;;;;;;5094504;28;19916;-78
2024/02/25 05:49:46;;;;;;;;;;;5.10;1.00;;;;;;5086831;28;19977;-78
2024/02/25 05:58:23;;;;;;;;;;;5.10;1.00;;;;;;5096788;28;19994;-78
2024/02/25 06:00:49;;;;;;;;;;;5.10;1.00;;;;;;5086750;28;19921;-78
2024/02/25 06:03:15;;;;;;;;;;;5.20;1.00;;;;;;5058788;28;20003;-80
2024/02/25 06:05:47;;;;;;;;;;;5.20;1.00;;;;;;5097247;28;19920;-77
2024/02/25 06:08:13;;;;;;;;;;;5.30;1.00;;;;;;5083474;28;19991;-77
2024/02/25 06:13:41;;;;;;;;;;;5.40;1.00;;;;;;5096873;28;19915;-78
2024/02/25 06:19:10;;;;;;;;;;;5.40;1.00;;;;;;5096487;28;20003;-77
2024/02/25 06:24:38;;;;;;;;;;;5.40;1.00;;;;;;5096482;28;19923;-78
2024/02/25 06:33:10;;;;;;;;;;;5.30;1.00;;;;;;5083401;28;20336;-78
2024/02/25 06:41:42;;;;;;;;;;;5.30;1.00;;;;;;5096638;28;19946;-77
2024/02/25 06:44:08;;;;;;;;;;;5.50;1.00;;;;;;5078644;28;19920;-77
2024/02/25 06:46:37;;;;;;;;;;;5.50;1.00;;;;;;5093535;28;19927;-77
2024/02/25 06:52:06;;;;;;;;;;;5.60;1.00;;;;;;5095729;28;19922;-78
2024/02/25 06:54:47;;;;;;;;;;;5.70;1.00;;;;;;5107494;28;19998;-77
2024/02/25 06:57:23;;;;;;;;;;;5.70;1.00;;;;;;5096211;28;20003;-77
2024/02/25 07:00:17;;;;;;;;;;;5.70;1.00;;;;;;5095937;28;19908;-80
2024/02/25 07:05:46;;;;;;;;;;;5.90;1.00;;;;;;5080649;28;20279;-88
2024/02/25 07:11:49;;;;;;;;;;;6.10;1.00;;;;;;5100881;28;19923;-82
2024/02/25 07:23:43;;;;;;;;;;;6.40;1.00;;;;;;5095712;28;19954;-80
2024/02/25 07:32:15;;;;;;;;;;;6.60;1.00;;;;;;5093292;28;19922;-79
2024/02/25 07:34:42;;;;;;;;;;;6.60;1.00;;;;;;5092775;28;19912;-80
2024/02/25 07:37:08;;;;;;;;;;;6.70;1.00;;;;;;5095044;28;20307;-80
2024/02/25 07:39:36;;;;;;;;;;;6.50;1.00;;;;;;5101883;28;19946;-79
2024/02/25 07:42:05;;;;;;;;;;;6.40;1.00;;;;;;5113513;28;20402;-79
2024/02/25 07:44:31;;;;;;;;;;;6.50;1.00;;;;;;5082542;28;20320;-78
2024/02/25 07:47:29;;;;;;;;;;;6.50;1.00;;;;;;5109445;28;20056;-78
2024/02/25 07:52:58;;;;;;;;;;;6.50;1.00;;;;;;5100208;28;20393;-78
2024/02/25 07:55:35;;;;;;;;;;;6.50;1.00;;;;;;5094698;28;19908;-78
2024/02/25 08:07:10;;;;;;;;;;;7.10;1.00;;;;;;5094750;28;20463;-79
2024/02/25 08:10:05;;;;;;;;;;;7.30;1.00;;;;;;5099497;28;19956;-80
2024/02/25 08:12:35;;;;;;;;;;;7.20;1.00;;;;;;5084205;28;19912;-78
2024/02/25 08:15:35;;;;;;;;;;;7.20;1.00;;;;;;5092452;28;19995;-78
2024/02/25 08:24:17;;;;;;;;;;;7.30;1.00;;;;;;5094272;28;19919;-81
2024/02/25 08:26:43;;;;;;;;;;;7.50;1.00;;;;;;5082015;28;20009;-81
2024/02/25 08:29:23;;;;;;;;;;;7.50;1.00;;;;;;5082872;28;19959;-79
2024/02/25 08:41:05;;;;;;;;;;;7.50;1.00;;;;;;5093828;28;19919;-79
2024/02/25 08:43:31;;;;;;;;;;;7.30;1.00;;;;;;5094521;28;19923;-79
2024/02/25 08:46:05;;;;;;;;;;;7.50;1.00;;;;;;5094064;28;19916;-79
2024/02/25 08:49:05;;;;;;;;;;;7.40;1.00;;;;;;5094004;28;19908;-79
2024/02/25 08:51:41;;;;;;;;;;;7.50;1.00;;;;;;5094129;28;19908;-78
2024/02/25 08:54:17;;;;;;;;;;;7.60;1.00;;;;;;5085726;28;19958;-76
2024/02/25 08:57:05;;;;;;;;;;;7.70;1.00;;;;;;5103681;28;19919;-77
2024/02/25 08:59:59;;;;;;;;;;;7.90;1.00;;;;;;5101029;28;19908;-82
2024/02/25 09:05:53;;;;;;;;;;;8.10;1.00;;;;;;5100609;28;19992;-83
2024/02/25 09:14:25;;;;;;;;;;;8.40;1.00;;;;;;5100717;28;19959;-83
2024/02/25 09:17:05;;;;;;;;;;;8.50;1.00;;;;;;5091202;28;19908;-83
2024/02/25 09:19:35;;;;;;;;;;;8.70;1.00;;;;;;5070328;28;19938;-84
2024/02/25 09:22:05;;;;;;;;;;;8.70;1.00;;;;;;5081161;28;19919;-83
2024/02/25 09:24:35;;;;;;;;;;;8.80;1.00;;;;;;5100606;28;19950;-83
2024/02/25 09:27:17;;;;;;;;;;;8.80;1.00;;;;;;5100744;28;19956;-84
2024/02/25 09:29:59;;;;;;;;;;;8.70;1.00;;;;;;5062570;28;19952;-79
2024/02/25 09:32:47;;;;;;;;;;;8.80;1.00;;;;;;5096673;28;19957;-79
2024/02/25 09:38:17;;;;;;;;;;;8.70;1.00;;;;;;5087245;28;19957;-76
2024/02/25 09:41:17;;;;;;;;;;;8.60;1.00;;;;;;5083085;28;19919;-80
2024/02/25 09:43:43;;;;;;;;;;;8.50;1.00;;;;;;5098253;28;19916;-78
2024/02/25 09:46:29;;;;;;;;;;;8.50;1.00;;;;;;5101138;28;19931;-78
2024/02/25 09:52:29;;;;;;;;;;;8.30;1.00;;;;;;5095321;28;19931;-78
2024/02/25 09:55:09;;;;;;;;;;;8.30;1.00;;;;;;5090399;28;19951;-78
2024/02/25 09:58:05;;;;;;;;;;;8.30;1.00;;;;;;5099708;28;19915;-77
2024/02/25 10:00:35;;;;;;;;;;;8.40;1.00;;;;;;5092975;28;19962;-78
2024/02/25 10:03:35;;;;;;;;;;;8.40;1.00;;;;;;5099546;28;19915;-78
2024/02/25 10:06:36;;;;;;;;;;;8.60;1.00;;;;;;5093175;28;19923;-78
2024/02/25 10:09:35;;;;;;;;;;;8.80;1.00;;;;;;5089050;28;19919;-78
2024/02/25 10:12:11;;;;;;;;;;;8.90;1.00;;;;;;5096454;28;19908;-78
2024/02/25 10:15:06;;;;;;;;;;;9.00;1.00;;;;;;5088374;28;20286;-78
2024/02/25 10:20:35;;;;;;;;;;;9.60;1.00;;;;;;5095670;28;19965;-78
2024/02/25 10:35:13;;;;;;;;;;;10.30;1.00;;;;;;5095408;28;19915;-78
2024/02/25 10:38:12;;;;;;;;;;;10.50;1.00;;;;;;5095730;28;20367;-78
2024/02/25 10:41:06;;;;;;;;;;;10.70;1.00;;;;;;5091859;28;20248;-78
2024/02/25 10:43:33;;;;;;;;;;;10.40;1.00;;;;;;5096086;28;19948;-78
2024/02/25 10:46:26;;;;;;;;;;;10.20;1.00;;;;;;5096601;28;19920;-77
2024/02/25 10:49:05;;;;;;;;;;;10.20;1.00;;;;;;5081814;28;20260;-77
2024/02/25 10:54:36;;;;;;;;;;;10.40;1.00;;;;;;5096051;28;19915;-78
2024/02/25 10:57:39;;;;;;;;;;;10.70;1.00;;;;;;5095960;28;19919;-77
2024/02/25 11:03:35;;;;;;;;;;;10.70;1.00;;;;;;5090971;28;20410;-78
2024/02/25 11:06:06;;;;;;;;;;;10.70;1.00;;;;;;5091135;28;19920;-77
2024/02/25 11:12:05;;;;;;;;;;;11.00;1.00;;;;;;5083089;28;19915;-77
2024/02/25 11:14:35;;;;;;;;;;;10.70;1.00;;;;;;5094922;28;19913;-77
2024/02/25 11:17:15;;;;;;;;;;;10.60;1.00;;;;;;5094477;28;19912;-77
2024/02/25 11:20:14;;;;;;;;;;;10.90;1.00;;;;;;5095236;28;19915;-78
2024/02/25 11:22:49;;;;;;;;;;;10.80;1.00;;;;;;5026893;28;20258;-77
2024/02/25 11:28:20;;;;;;;;;;;11.10;1.00;;;;;;5031717;28;19967;-76
2024/02/25 11:31:02;;;;;;;;;;;10.70;1.00;;;;;;5027704;28;19917;-76
2024/02/25 11:33:42;;;;;;;;;;;10.70;1.00;;;;;;5029965;28;20109;-75
2024/02/25 11:36:19;;;;;;;;;;;10.80;1.00;;;;;;5024515;28;20304;-75
2024/02/25 11:38:55;;;;;;;;;;;11.00;1.00;;;;;;5045711;28;19909;-75
2024/02/25 11:41:26;;;;;;;;;;;11.10;1.00;;;;;;5032910;28;20043;-74
2024/02/25 11:43:52;;;;;;;;;;;11.20;1.00;;;;;;5035798;28;19917;-76
2024/02/25 11:49:47;;;;;;;;;;;11.50;1.00;;;;;;5046521;28;19962;-75
2024/02/25 11:52:17;;;;;;;;;;;11.70;1.00;;;;;;5032827;28;19917;-75
2024/02/25 11:54:59;;;;;;;;;;;11.80;1.00;;;;;;5035187;28;19909;-75
2024/02/25 11:57:29;;;;;;;;;;;11.50;1.00;;;;;;5050341;28;19908;-75
2024/02/25 11:59:55;;;;;;;;;;;11.60;1.00;;;;;;5101038;28;19957;-75
2024/02/25 12:02:21;;;;;;;;;;;11.50;1.00;;;;;;5095029;28;19908;-77
2024/02/25 12:04:46;;;;;;;;;;;11.20;1.00;;;;;;5094531;28;19958;-77
2024/02/25 12:07:17;;;;;;;;;;;11.30;1.00;;;;;;5105416;28;19912;-77
2024/02/25 12:09:56;;;;;;;;;;;11.30;1.00;;;;;;5100511;28;19912;-78
2024/02/25 12:12:36;;;;;;;;;;;11.20;1.00;;;;;;5113911;28;19912;-77
2024/02/25 12:15:05;;;;;;;;;;;10.80;1.00;;;;;;5090291;28;20066;-77
2024/02/25 12:17:36;;;;;;;;;;;10.80;1.00;;;;;;5092939;28;19912;-78
2024/02/25 12:23:11;;;;;;;;;;;10.90;1.00;;;;;;5088823;28;19909;-77
2024/02/25 12:26:08;;;;;;;;;;;11.40;1.00;;;;;;5093250;28;19912;-77
2024/02/25 12:28:37;;;;;;;;;;;11.50;1.00;;;;;;5093520;28;19915;-77
2024/02/25 12:31:06;;;;;;;;;;;11.50;1.00;;;;;;5094603;28;19916;-77
2024/02/25 12:36:35;;;;;;;;;;;11.40;1.00;;;;;;5087797;28;20000;-78
2024/02/25 12:39:10;;;;;;;;;;;11.30;1.00;;;;;;5094080;28;19915;-79
2024/02/25 12:41:35;;;;;;;;;;;11.40;1.00;;;;;;5093931;28;19915;-77
2024/02/25 12:44:01;;;;;;;;;;;11.40;1.00;;;;;;5092991;28;19922;-77
2024/02/25 12:46:27;;;;;;;;;;;11.60;1.00;;;;;;5094298;28;20019;-75
2024/02/25 12:49:11;;;;;;;;;;;11.60;1.00;;;;;;5093023;28;20332;-75
2024/02/25 12:51:37;;;;;;;;;;;11.60;1.00;;;;;;5094132;28;19961;-74
2024/02/25 12:54:02;;;;;;;;;;;11.60;1.00;;;;;;5094211;28;19916;-75
2024/02/25 12:56:28;;;;;;;;;;;11.70;1.00;;;;;;5094021;28;20006;-75
2024/02/25 12:59:00;;;;;;;;;;;11.70;1.00;;;;;;5092795;28;19911;-75
2024/02/25 13:04:36;;;;;;;;;;;12.40;1.00;;;;;;5100094;28;20381;-77
2024/02/25 13:07:06;;;;;;;;;;;12.20;1.00;;;;;;5092419;28;19999;-78
2024/02/25 13:09:54;;;;;;;;;;;12.10;1.00;;;;;;5080310;28;19920;-77
2024/02/25 13:12:29;;;;;;;;;;;11.80;1.00;;;;;;5055695;28;19909;-77
2024/02/25 13:15:06;;;;;;;;;;;11.90;1.00;;;;;;5090185;28;19998;-76
2024/02/25 13:26:54;;;;;;;;;;;11.40;1.00;;;;;;5093789;28;20011;-77
2024/02/25 13:29:49;;;;;;;;;;;11.20;1.00;;;;;;5072003;28;19912;-76
2024/02/25 13:32:24;;;;;;;;;;;11.40;1.00;;;;;;5092258;28;20379;-75
2024/02/25 13:35:11;;;;;;;;;;;11.70;1.00;;;;;;5093105;28;20342;-75
2024/02/25 13:37:53;;;;;;;;;;;11.50;1.00;;;;;;5093935;28;19908;-75
2024/02/25 13:40:19;;;;;;;;;;;11.70;1.00;;;;;;5086876;28;19920;-76
2024/02/25 13:42:55;;;;;;;;;;;11.70;1.00;;;;;;5097296;28;19916;-74
2024/02/25 13:45:29;;;;;;;;;;;11.80;1.00;;;;;;5094876;28;20276;-74
2024/02/25 13:51:12;;;;;;;;;;;12.00;1.00;;;;;;5095004;28;20279;-78
2024/02/25 13:57:05;;;;;;;;;;;11.70;1.00;;;;;;5086273;28;19971;-78
2024/02/25 14:02:42;;;;;;;;;;;11.80;1.00;;;;;;5083647;28;19958;-76
2024/02/25 14:05:12;;;;;;;;;;;11.90;1.00;;;;;;5091777;28;19930;-77
2024/02/25 14:11:00;;;;;;;;;;;12.20;1.00;;;;;;5080959;28;19915;-75
2024/02/25 14:13:35;;;;;;;;;;;12.40;1.00;;;;;;5096147;28;19908;-76
2024/02/25 14:16:01;;;;;;;;;;;12.40;1.00;;;;;;5082860;28;19912;-75
2024/02/25 14:18:27;;;;;;;;;;;12.40;1.00;;;;;;5093761;28;19916;-75
2024/02/25 14:20:59;;;;;;;;;;;12.60;1.00;;;;;;5095111;28;19915;-76
2024/02/25 14:23:42;;;;;;;;;;;12.60;1.00;;;;;;5096492;28;19908;-76
2024/02/25 14:26:18;;;;;;;;;;;12.50;1.00;;;;;;5094671;28;19971;-76
2024/02/25 14:29:06;;;;;;;;;;;12.50;1.00;;;;;;5093311;28;19919;-76
2024/02/25 14:31:32;;;;;;;;;;;12.60;1.00;;;;;;5079487;28;20339;-76
2024/02/25 14:34:05;;;;;;;;;;;12.80;1.00;;;;;;5090909;28;19939;-78
2024/02/25 14:39:53;;;;;;;;;;;12.60;1.00;;;;;;5090909;28;20283;-78
2024/02/25 14:42:54;;;;;;;;;;;12.60;1.00;;;;;;5094723;28;20390;-79
2024/02/25 14:45:36;;;;;;;;;;;12.90;1.00;;;;;;5089919;28;19921;-81
2024/02/25 14:48:23;;;;;;;;;;;12.90;1.00;;;;;;5077924;28;19978;-79
2024/02/25 14:51:11;;;;;;;;;;;13.10;1.00;;;;;;5094238;28;19916;-79
2024/02/25 14:56:40;;;;;;;;;;;13.30;1.00;;;;;;5094410;28;19969;-80
2024/02/25 14:59:35;;;;;;;;;;;13.30;1.00;;;;;;5103562;28;20340;-79
2024/02/25 15:02:24;;;;;;;;;;;13.20;1.00;;;;;;5086277;28;20377;-81
2024/02/25 15:04:49;;;;;;;;;;;13.20;1.00;;;;;;5095359;28;19964;-75
2024/02/25 15:07:18;;;;;;;;;;;13.30;1.00;;;;;;5095495;28;19952;-75
2024/02/25 15:09:54;;;;;;;;;;;13.00;1.00;;;;;;5095318;28;20291;-75
2024/02/25 15:15:44;;;;;;;;;;;13.00;1.00;;;;;;5095506;28;19961;-76
2024/02/25 15:18:12;;;;;;;;;;;13.20;1.00;;;;;;5089933;28;20276;-74
2024/02/25 15:21:05;;;;;;;;;;;13.40;1.00;;;;;;5095138;28;19913;-77
2024/02/25 15:23:36;;;;;;;;;;;13.50;1.00;;;;;;5090354;28;20003;-75
2024/02/25 15:29:18;;;;;;;;;;;13.60;1.00;;;;;;5094704;28;19935;-74
2024/02/25 15:32:11;;;;;;;;;;;13.60;1.00;;;;;;5081824;28;19962;-75
2024/02/25 15:34:48;;;;;;;;;;;13.50;1.00;;;;;;5086850;28;20359;-75
2024/02/25 15:37:35;;;;;;;;;;;13.50;1.00;;;;;;5095628;28;20284;-77
2024/02/25 15:40:25;;;;;;;;;;;13.60;1.00;;;;;;5099830;28;19965;-78
2024/02/25 15:42:54;;;;;;;;;;;13.20;1.00;;;;;;5095157;28;20003;-74
2024/02/25 15:45:45;;;;;;;;;;;13.30;1.00;;;;;;5095055;28;20363;-76
2024/02/25 15:48:37;;;;;;;;;;;13.30;1.00;;;;;;5095334;28;20021;-76
2024/02/25 15:51:35;;;;;;;;;;;13.40;1.00;;;;;;5094840;28;19986;-78
2024/02/25 15:54:06;;;;;;;;;;;13.50;1.00;;;;;;5094827;28;19916;-75
2024/02/25 15:56:53;;;;;;;;;;;13.50;1.00;;;;;;5094696;28;20002;-76
2024/02/25 15:59:30;;;;;;;;;;;13.90;1.00;;;;;;5094706;28;19991;-75
2024/02/25 16:05:06;;;;;;;;;;;15.10;1.00;;;;;;5091328;28;19916;-76
2024/02/25 16:07:48;;;;;;;;;;;16.30;1.00;;;;;;5094319;28;20279;-76
2024/02/25 16:16:47;;;;;;;;;;;16.50;1.00;;;;;;5082466;28;19977;-76
2024/02/25 16:19:13;;;;;;;;;;;15.90;1.00;;;;;;5093388;28;19916;-76
2024/02/25 16:21:42;;;;;;;;;;;15.30;1.00;;;;;;5093354;28;19920;-77
2024/02/25 16:24:12;;;;;;;;;;;14.90;1.00;;;;;;5094156;28;19958;-74
2024/02/25 16:26:44;;;;;;;;;;;14.50;1.00;;;;;;5092944;28;19916;-75
2024/02/25 16:29:18;;;;;;;;;;;14.00;1.00;;;;;;5087685;28;19959;-75
2024/02/25 16:32:06;;;;;;;;;;;13.40;1.00;;;;;;5075722;28;19920;-76
2024/02/25 16:35:06;;;;;;;;;;;13.20;1.00;;;;;;5085955;28;20006;-77
2024/02/25 16:37:36;;;;;;;;;;;12.40;1.00;;;;;;5065666;28;20300;-78
2024/02/25 16:40:06;;;;;;;;;;;12.00;1.00;;;;;;5094061;28;19912;-78
2024/02/25 16:42:54;;;;;;;;;;;11.50;1.00;;;;;;5093709;28;19912;-78
2024/02/25 16:45:24;;;;;;;;;;;11.40;1.00;;;;;;5097195;28;19935;-78
2024/02/25 16:48:06;;;;;;;;;;;10.70;1.00;;;;;;5093930;28;19915;-79
2024/02/25 16:50:36;;;;;;;;;;;10.70;1.00;;;;;;5093307;28;19918;-77
2024/02/25 16:53:06;;;;;;;;;;;10.30;1.00;;;;;;5107898;28;19923;-77
2024/02/25 16:55:36;;;;;;;;;;;10.10;1.00;;;;;;5093935;28;20370;-79
2024/02/25 16:58:07;;;;;;;;;;;9.90;1.00;;;;;;5091071;28;19919;-77
2024/02/25 17:00:33;;;;;;;;;;;9.60;1.00;;;;;;5090869;28;20023;-76
2024/02/25 17:03:06;;;;;;;;;;;9.60;1.00;;;;;;5089198;28;20244;-76
2024/02/25 17:05:32;;;;;;;;;;;9.40;1.00;;;;;;5074592;28;20317;-75
2024/02/25 17:08:06;;;;;;;;;;;9.10;1.00;;;;;;5093530;28;19961;-75
2024/02/25 17:10:36;;;;;;;;;;;9.00;1.00;;;;;;5080587;28;19909;-75
2024/02/25 17:13:06;;;;;;;;;;;8.70;1.00;;;;;;5081244;28;20308;-75
2024/02/25 17:15:36;;;;;;;;;;;8.70;1.00;;;;;;5100816;28;19908;-75
2024/02/25 17:18:07;;;;;;;;;;;8.40;1.00;;;;;;5097408;28;19912;-75
2024/02/25 17:20:36;;;;;;;;;;;8.40;1.00;;;;;;5097577;28;19912;-75
2024/02/25 17:23:03;;;;;;;;;;;8.20;1.00;;;;;;5096078;28;20416;-75
2024/02/25 17:25:54;;;;;;;;;;;8.10;1.00;;;;;;5109871;28;20269;-75
2024/02/25 17:28:36;;;;;;;;;;;8.00;1.00;;;;;;5091344;28;19920;-75
2024/02/25 17:31:06;;;;;;;;;;;7.80;1.00;;;;;;5081468;28;19923;-74
2024/02/25 17:33:42;;;;;;;;;;;7.80;1.00;;;;;;5097180;28;19983;-75
2024/02/25 17:36:14;;;;;;;;;;;7.70;1.00;;;;;;5098043;28;19931;-75
2024/02/25 17:38:40;;;;;;;;;;;7.70;1.00;;;;;;5097144;28;20260;-75
2024/02/25 17:41:12;;;;;;;;;;;7.50;1.00;;;;;;5110102;28;19908;-75
2024/02/25 17:43:38;;;;;;;;;;;7.50;1.00;;;;;;5096764;28;19924;-75
2024/02/25 17:46:15;;;;;;;;;;;7.40;1.00;;;;;;5091575;28;19916;-75
2024/02/25 18:00:53;;;;;;;;;;;7.00;1.00;;;;;;5077777;28;19915;-78
2024/02/25 18:03:42;;;;;;;;;;;7.00;1.00;;;;;;5097039;28;19919;-77
2024/02/25 18:06:12;;;;;;;;;;;7.10;1.00;;;;;;5094855;28;19912;-79
2024/02/25 18:09:12;;;;;;;;;;;7.10;1.00;;;;;;5096280;28;19912;-79
2024/02/25 18:14:49;;;;;;;;;;;7.00;1.00;;;;;;5086208;28;19919;-76
2024/02/25 18:17:36;;;;;;;;;;;7.00;1.00;;;;;;5096573;28;19908;-77
2024/02/25 18:20:18;;;;;;;;;;;6.90;1.00;;;;;;5097273;28;19915;-74
2024/02/25 18:22:55;;;;;;;;;;;6.80;1.00;;;;;;5093116;28;19912;-74
2024/02/25 18:25:54;;;;;;;;;;;6.80;1.00;;;;;;5093834;28;19954;-74
2024/02/25 18:28:30;;;;;;;;;;;6.80;1.00;;;;;;5090097;28;19927;-78
2024/02/25 18:30:56;;;;;;;;;;;6.80;1.00;;;;;;5081667;28;19908;-78
2024/02/25 18:36:48;;;;;;;;;;;6.80;1.00;;;;;;5096697;28;20394;-76
2024/02/25 18:39:13;;;;;;;;;;;6.90;1.00;;;;;;5096065;28;20427;-76
2024/02/25 18:56:54;;;;;;;;;;;6.80;1.00;;;;;;5095895;28;19919;-77
2024/02/25 18:59:30;;;;;;;;;;;6.80;1.00;;;;;;5096366;28;19912;-76
2024/02/25 19:02:12;;;;;;;;;;;6.80;1.00;;;;;;5087774;28;19908;-77
2024/02/25 19:10:44;;;;;;;;;;;6.80;1.00;;;;;;5095623;28;19915;-76
2024/02/25 19:31:37;;;;;;;;;;;6.90;1.00;;;;;;5080761;28;19927;-78
2024/02/25 19:37:06;;;;;;;;;;;7.00;1.00;;;;;;5094943;28;19914;-78
2024/02/25 19:39:54;;;;;;;;;;;7.00;1.00;;;;;;5095165;28;20355;-79
2024/02/25 19:42:55;;;;;;;;;;;7.00;1.00;;;;;;5074478;28;19924;-78
2024/02/25 19:45:20;;;;;;;;;;;7.00;1.00;;;;;;5093908;28;20015;-78
2024/02/25 19:51:10;;;;;;;;;;;7.00;1.00;;;;;;5086762;28;20361;-78
2024/02/25 19:54:08;;;;;;;;;;;7.00;1.00;;;;;;5075143;28;19995;-79
2024/02/25 19:56:36;;;;;;;;;;;7.00;1.00;;;;;;5092555;28;20326;-78
2024/02/25 19:59:02;;;;;;;;;;;7.00;1.00;;;;;;5094621;28;19958;-78
2024/02/25 20:01:37;;;;;;;;;;;7.00;1.00;;;;;;5082122;28;19916;-79
2024/02/25 20:04:12;;;;;;;;;;;7.10;1.00;;;;;;5094875;28;20321;-79
2024/02/25 20:16:06;;;;;;;;;;;7.00;1.00;;;;;;5091532;28;20008;-78
2024/02/25 20:19:08;;;;;;;;;;;7.00;1.00;;;;;;5094426;28;19912;-79
2024/02/25 20:22:06;;;;;;;;;;;7.00;1.00;;;;;;5087619;28;20550;-77
2024/02/25 20:25:06;;;;;;;;;;;7.00;1.00;;;;;;5087712;28;20355;-78
2024/02/25 20:28:06;;;;;;;;;;;6.90;1.00;;;;;;5094190;28;19916;-78
2024/02/25 20:31:00;;;;;;;;;;;6.90;1.00;;;;;;5094256;28;19919;-78
2024/02/25 20:33:38;;;;;;;;;;;6.80;1.00;;;;;;5078617;28;19967;-79
2024/02/25 20:39:12;;;;;;;;;;;6.70;1.00;;;;;;5094059;28;19915;-77
2024/02/25 20:41:42;;;;;;;;;;;6.70;1.00;;;;;;5094253;28;19909;-77
2024/02/25 20:44:08;;;;;;;;;;;6.70;1.00;;;;;;5093878;28;19916;-77
2024/02/25 20:46:35;;;;;;;;;;;6.70;1.00;;;;;;5093715;28;19920;-77
2024/02/25 20:49:01;;;;;;;;;;;6.70;1.00;;;;;;5092995;28;19947;-77
2024/02/25 20:51:36;;;;;;;;;;;6.70;1.00;;;;;;5096060;28;19920;-78
2024/02/25 20:54:37;;;;;;;;;;;6.70;1.00;;;;;;5099483;28;19912;-78
2024/02/25 20:57:36;;;;;;;;;;;6.70;1.00;;;;;;5085171;28;20352;-78
2024/02/25 21:00:36;;;;;;;;;;;6.70;1.00;;;;;;5077515;28;20374;-78
2024/02/25 21:06:19;;;;;;;;;;;6.80;1.00;;;;;;5076622;28;20446;-78
2024/02/25 21:09:18;;;;;;;;;;;6.80;1.00;;;;;;5093651;28;19939;-78
2024/02/25 21:12:00;;;;;;;;;;;6.80;1.00;;;;;;5093947;28;19919;-78
2024/02/25 21:14:36;;;;;;;;;;;6.80;1.00;;;;;;5094072;28;19908;-78
2024/02/25 21:17:36;;;;;;;;;;;6.90;1.00;;;;;;5093500;28;20038;-78
2024/02/25 21:20:07;;;;;;;;;;;6.90;1.00;;;;;;5093601;28;19918;-78
2024/02/25 21:22:45;;;;;;;;;;;7.00;1.00;;;;;;5093863;28;20423;-76
2024/02/25 21:25:42;;;;;;;;;;;7.00;1.00;;;;;;5096029;28;20208;-78
2024/02/25 21:28:18;;;;;;;;;;;7.00;1.00;;;;;;5102004;28;19912;-79
2024/02/25 21:31:06;;;;;;;;;;;7.00;1.00;;;;;;5080257;28;19915;-78
2024/02/25 21:34:06;;;;;;;;;;;7.00;1.00;;;;;;5077659;28;19924;-78
2024/02/25 21:36:36;;;;;;;;;;;7.10;1.00;;;;;;5103471;28;19919;-77
2024/02/25 21:42:30;;;;;;;;;;;7.10;1.00;;;;;;5087565;28;19920;-77
2024/02/25 21:45:06;;;;;;;;;;;7.10;1.00;;;;;;5093572;28;19969;-77
2024/02/25 21:48:06;;;;;;;;;;;7.10;1.00;;;;;;5104812;28;19916;-77
2024/02/25 21:50:36;;;;;;;;;;;7.20;1.00;;;;;;5082002;28;20360;-77
2024/02/25 21:53:36;;;;;;;;;;;7.20;1.00;;;;;;5089789;28;20276;-77
2024/02/25 21:56:06;;;;;;;;;;;7.20;1.00;;;;;;5075253;28;19909;-77
2024/02/25 21:58:33;;;;;;;;;;;7.30;1.00;;;;;;5093670;28;19912;-77
2024/02/25 22:01:06;;;;;;;;;;;7.30;1.00;;;;;;5094450;28;19912;-77
2024/02/25 22:04:06;;;;;;;;;;;7.30;1.00;;;;;;5096943;28;19912;-77
2024/02/25 22:06:38;;;;;;;;;;;7.30;1.00;;;;;;5097343;28;19962;-77
2024/02/25 22:09:12;;;;;;;;;;;7.40;1.00;;;;;;5096853;28;20367;-77
2024/02/25 22:12:06;;;;;;;;;;;7.30;1.00;;;;;;5097008;28;19908;-77
2024/02/25 22:15:07;;;;;;;;;;;7.40;1.00;;;;;;5096957;28;20020;-77
2024/02/25 22:17:36;;;;;;;;;;;7.30;1.00;;;;;;5096671;28;19931;-77
2024/02/25 22:20:36;;;;;;;;;;;7.30;1.00;;;;;;5097091;28;19908;-77
2024/02/25 22:23:06;;;;;;;;;;;7.30;1.00;;;;;;5091875;28;19912;-77
2024/02/25 22:25:36;;;;;;;;;;;7.30;1.00;;;;;;5097260;28;19908;-77
2024/02/25 22:28:06;;;;;;;;;;;7.20;1.00;;;;;;5096384;28;19916;-78
2024/02/25 22:31:06;;;;;;;;;;;7.20;1.00;;;;;;5096608;28;19961;-78
2024/02/25 22:34:06;;;;;;;;;;;7.20;1.00;;;;;;5081903;28;20318;-77
2024/02/25 22:40:06;;;;;;;;;;;7.20;1.00;;;;;;5096410;28;20424;-77
2024/02/25 22:42:37;;;;;;;;;;;7.20;1.00;;;;;;5084851;28;19920;-77